sensor_id;sensor_type;location;lat;lon;timestamp;P1;durP1;ratioP1;P2;durP2;ratioP2
75739;SDS011;64357;51.344;6.550;2023-02-28T00:01:16;9.85;;;2.50;;
75739;SDS011;64357;51.344;6.550;2023-02-28T00:03:41;6.93;;;2.78;;
75739;SDS011;64357;51.344;6.550;2023-02-28T00:06:07;8.90;;;2.30;;
75739;SDS011;64357;51.344;6.550;2023-02-28T00:08:34;10.65;;;3.20;;
75739;SDS011;64357;51.344;6.550;2023-02-28T00:11:02;7.90;;;3.15;;
75739;SDS011;64357;51.344;6.550;2023-02-28T00:13:32;9.77;;;2.95;;
75739;SDS011;64357;51.344;6.550;2023-02-28T00:16:02;7.97;;;2.63;;
75739;SDS011;64357;51.344;6.550;2023-02-28T00:18:47;8.10;;;2.55;;
75739;SDS011;64357;51.344;6.550;2023-02-28T00:21:15;9.55;;;2.88;;
75739;SDS011;64357;51.344;6.550;2023-02-28T00:23:42;10.45;;;2.58;;
75739;SDS011;64357;51.344;6.550;2023-02-28T00:26:07;8.65;;;2.92;;
75739;SDS011;64357;51.344;6.550;2023-02-28T00:28:35;9.02;;;3.08;;
75739;SDS011;64357;51.344;6.550;2023-02-28T00:31:00;8.30;;;2.60;;
75739;SDS011;64357;51.344;6.550;2023-02-28T00:33:26;11.02;;;3.17;;
75739;SDS011;64357;51.344;6.550;2023-02-28T00:36:00;10.23;;;2.85;;
75739;SDS011;64357;51.344;6.550;2023-02-28T00:38:26;12.10;;;3.28;;
75739;SDS011;64357;51.344;6.550;2023-02-28T00:40:52;7.97;;;2.90;;
75739;SDS011;64357;51.344;6.550;2023-02-28T00:43:17;9.05;;;2.95;;
75739;SDS011;64357;51.344;6.550;2023-02-28T00:45:43;8.03;;;2.80;;
75739;SDS011;64357;51.344;6.550;2023-02-28T00:48:10;8.75;;;2.83;;
75739;SDS011;64357;51.344;6.550;2023-02-28T00:50:36;7.13;;;2.40;;
75739;SDS011;64357;51.344;6.550;2023-02-28T00:53:03;6.15;;;2.55;;
75739;SDS011;64357;51.344;6.550;2023-02-28T00:55:29;8.00;;;2.40;;
75739;SDS011;64357;51.344;6.550;2023-02-28T00:57:54;9.80;;;2.93;;
75739;SDS011;64357;51.344;6.550;2023-02-28T01:00:21;7.25;;;2.85;;
75739;SDS011;64357;51.344;6.550;2023-02-28T01:02:47;6.55;;;2.67;;
75739;SDS011;64357;51.344;6.550;2023-02-28T01:05:12;9.63;;;2.87;;
75739;SDS011;64357;51.344;6.550;2023-02-28T01:07:38;7.43;;;2.93;;
75739;SDS011;64357;51.344;6.550;2023-02-28T01:10:03;8.97;;;2.83;;
75739;SDS011;64357;51.344;6.550;2023-02-28T01:12:31;6.68;;;2.47;;
75739;SDS011;64357;51.344;6.550;2023-02-28T01:14:56;7.57;;;2.30;;
75739;SDS011;64357;51.344;6.550;2023-02-28T01:17:22;6.95;;;2.45;;
75739;SDS011;64357;51.344;6.550;2023-02-28T01:19:48;8.43;;;2.63;;
75739;SDS011;64357;51.344;6.550;2023-02-28T01:22:13;6.53;;;2.43;;
75739;SDS011;64357;51.344;6.550;2023-02-28T01:24:38;6.67;;;2.57;;
75739;SDS011;64357;51.344;6.550;2023-02-28T01:27:04;7.97;;;2.50;;
75739;SDS011;64357;51.344;6.550;2023-02-28T01:29:32;5.45;;;2.22;;
75739;SDS011;64357;51.344;6.550;2023-02-28T01:31:59;6.10;;;2.10;;
75739;SDS011;64357;51.344;6.550;2023-02-28T01:34:27;7.60;;;2.77;;
75739;SDS011;64357;51.344;6.550;2023-02-28T01:36:52;9.27;;;2.50;;
75739;SDS011;64357;51.344;6.550;2023-02-28T01:39:20;6.97;;;2.40;;
75739;SDS011;64357;51.344;6.550;2023-02-28T01:41:46;6.53;;;2.55;;
75739;SDS011;64357;51.344;6.550;2023-02-28T01:47:15;3.53;;;1.50;;
75739;SDS011;64357;51.344;6.550;2023-02-28T01:49:43;9.30;;;2.05;;
75739;SDS011;64357;51.344;6.550;2023-02-28T01:52:13;7.82;;;2.35;;
75739;SDS011;64357;51.344;6.550;2023-02-28T01:54:43;4.38;;;2.13;;
75739;SDS011;64357;51.344;6.550;2023-02-28T01:57:16;7.72;;;2.50;;
75739;SDS011;64357;51.344;6.550;2023-02-28T01:59:53;4.97;;;2.03;;
75739;SDS011;64357;51.344;6.550;2023-02-28T02:02:25;7.80;;;2.47;;
75739;SDS011;64357;51.344;6.550;2023-02-28T02:05:00;7.03;;;2.30;;
75739;SDS011;64357;51.344;6.550;2023-02-28T02:07:33;4.95;;;1.70;;
75739;SDS011;64357;51.344;6.550;2023-02-28T02:26:26;7.18;;;2.80;;
75739;SDS011;64357;51.344;6.550;2023-02-28T02:37:59;6.15;;;2.22;;
75739;SDS011;64357;51.344;6.550;2023-02-28T02:40:29;3.50;;;1.48;;
75739;SDS011;64357;51.344;6.550;2023-02-28T02:43:18;8.20;;;2.20;;
75739;SDS011;64357;51.344;6.550;2023-02-28T02:45:49;5.63;;;2.08;;
75739;SDS011;64357;51.344;6.550;2023-02-28T02:48:25;6.32;;;1.98;;
75739;SDS011;64357;51.344;6.550;2023-02-28T02:50:57;8.80;;;2.33;;
75739;SDS011;64357;51.344;6.550;2023-02-28T02:53:29;10.98;;;2.35;;
75739;SDS011;64357;51.344;6.550;2023-02-28T02:56:00;5.40;;;1.73;;
75739;SDS011;64357;51.344;6.550;2023-02-28T02:58:31;3.92;;;1.70;;
75739;SDS011;64357;51.344;6.550;2023-02-28T03:01:07;5.88;;;1.85;;
75739;SDS011;64357;51.344;6.550;2023-02-28T03:03:39;6.65;;;2.00;;
75739;SDS011;64357;51.344;6.550;2023-02-28T03:06:10;7.38;;;2.33;;
75739;SDS011;64357;51.344;6.550;2023-02-28T03:08:37;6.35;;;2.17;;
75739;SDS011;64357;51.344;6.550;2023-02-28T03:11:04;4.90;;;1.85;;
75739;SDS011;64357;51.344;6.550;2023-02-28T03:13:39;7.60;;;2.40;;
75739;SDS011;64357;51.344;6.550;2023-02-28T03:29:50;7.40;;;1.73;;
75739;SDS011;64357;51.344;6.550;2023-02-28T03:35:24;5.07;;;1.15;;
75739;SDS011;64357;51.344;6.550;2023-02-28T03:38:04;4.45;;;1.38;;
75739;SDS011;64357;51.344;6.550;2023-02-28T03:40:39;3.55;;;1.50;;
75739;SDS011;64357;51.344;6.550;2023-02-28T03:43:12;8.52;;;2.08;;
75739;SDS011;64357;51.344;6.550;2023-02-28T03:45:45;3.92;;;1.63;;
75739;SDS011;64357;51.344;6.550;2023-02-28T03:48:15;5.13;;;1.85;;
75739;SDS011;64357;51.344;6.550;2023-02-28T03:50:43;5.78;;;1.92;;
75739;SDS011;64357;51.344;6.550;2023-02-28T03:53:21;8.73;;;1.95;;
75739;SDS011;64357;51.344;6.550;2023-02-28T03:56:17;4.18;;;1.50;;
75739;SDS011;64357;51.344;6.550;2023-02-28T03:58:59;4.82;;;1.83;;
75739;SDS011;64357;51.344;6.550;2023-02-28T04:04:07;4.82;;;1.70;;
75739;SDS011;64357;51.344;6.550;2023-02-28T04:06:34;8.77;;;1.60;;
75739;SDS011;64357;51.344;6.550;2023-02-28T04:08:59;8.32;;;1.60;;
75739;SDS011;64357;51.344;6.550;2023-02-28T04:11:38;3.13;;;1.27;;
75739;SDS011;64357;51.344;6.550;2023-02-28T04:14:07;3.75;;;1.40;;
75739;SDS011;64357;51.344;6.550;2023-02-28T04:16:37;6.07;;;2.08;;
75739;SDS011;64357;51.344;6.550;2023-02-28T04:19:05;3.65;;;1.40;;
75739;SDS011;64357;51.344;6.550;2023-02-28T04:21:35;4.65;;;2.00;;
75739;SDS011;64357;51.344;6.550;2023-02-28T04:24:04;6.70;;;1.55;;
75739;SDS011;64357;51.344;6.550;2023-02-28T04:26:33;5.00;;;1.40;;
75739;SDS011;64357;51.344;6.550;2023-02-28T04:29:00;5.15;;;1.73;;
75739;SDS011;64357;51.344;6.550;2023-02-28T04:31:27;5.50;;;1.67;;
75739;SDS011;64357;51.344;6.550;2023-02-28T04:33:52;3.80;;;1.50;;
75739;SDS011;64357;51.344;6.550;2023-02-28T04:36:18;3.97;;;1.33;;
75739;SDS011;64357;51.344;6.550;2023-02-28T04:38:44;4.15;;;1.80;;
75739;SDS011;64357;51.344;6.550;2023-02-28T04:41:10;7.25;;;1.65;;
75739;SDS011;64357;51.344;6.550;2023-02-28T04:43:35;4.65;;;1.70;;
75739;SDS011;64357;51.344;6.550;2023-02-28T04:46:04;5.13;;;1.50;;
75739;SDS011;64357;51.344;6.550;2023-02-28T04:48:31;4.78;;;1.52;;
75739;SDS011;64357;51.344;6.550;2023-02-28T04:51:02;3.90;;;1.38;;
75739;SDS011;64357;51.344;6.550;2023-02-28T04:53:29;8.73;;;1.83;;
75739;SDS011;64357;51.344;6.550;2023-02-28T04:55:55;7.80;;;1.70;;
75739;SDS011;64357;51.344;6.550;2023-02-28T04:58:21;3.22;;;1.15;;
75739;SDS011;64357;51.344;6.550;2023-02-28T05:00:49;2.78;;;1.13;;
75739;SDS011;64357;51.344;6.550;2023-02-28T05:03:18;4.95;;;1.60;;
75739;SDS011;64357;51.344;6.550;2023-02-28T05:05:45;3.22;;;1.15;;
75739;SDS011;64357;51.344;6.550;2023-02-28T05:08:11;5.93;;;1.50;;
75739;SDS011;64357;51.344;6.550;2023-02-28T05:10:36;3.37;;;1.47;;
75739;SDS011;64357;51.344;6.550;2023-02-28T05:13:02;6.73;;;2.10;;
75739;SDS011;64357;51.344;6.550;2023-02-28T05:15:27;5.53;;;1.55;;
75739;SDS011;64357;51.344;6.550;2023-02-28T05:17:53;4.22;;;1.38;;
75739;SDS011;64357;51.344;6.550;2023-02-28T05:20:18;4.87;;;1.50;;
75739;SDS011;64357;51.344;6.550;2023-02-28T05:22:46;7.70;;;2.20;;
75739;SDS011;64357;51.344;6.550;2023-02-28T05:25:16;3.92;;;1.65;;
75739;SDS011;64357;51.344;6.550;2023-02-28T05:27:44;3.42;;;1.40;;
75739;SDS011;64357;51.344;6.550;2023-02-28T05:30:10;8.68;;;2.45;;
75739;SDS011;64357;51.344;6.550;2023-02-28T05:32:38;5.47;;;1.70;;
75739;SDS011;64357;51.344;6.550;2023-02-28T05:35:08;9.32;;;2.33;;
75739;SDS011;64357;51.344;6.550;2023-02-28T05:37:37;6.75;;;1.75;;
75739;SDS011;64357;51.344;6.550;2023-02-28T05:40:03;9.27;;;1.88;;
75739;SDS011;64357;51.344;6.550;2023-02-28T05:42:31;3.53;;;1.42;;
75739;SDS011;64357;51.344;6.550;2023-02-28T05:44:57;15.30;;;2.40;;
75739;SDS011;64357;51.344;6.550;2023-02-28T05:47:23;5.93;;;1.70;;
75739;SDS011;64357;51.344;6.550;2023-02-28T05:49:48;5.80;;;1.50;;
75739;SDS011;64357;51.344;6.550;2023-02-28T05:52:13;4.87;;;1.87;;
75739;SDS011;64357;51.344;6.550;2023-02-28T05:54:39;8.20;;;1.92;;
75739;SDS011;64357;51.344;6.550;2023-02-28T05:57:07;6.85;;;2.08;;
75739;SDS011;64357;51.344;6.550;2023-02-28T05:59:32;9.90;;;2.27;;
75739;SDS011;64357;51.344;6.550;2023-02-28T06:01:58;4.78;;;1.55;;
75739;SDS011;64357;51.344;6.550;2023-02-28T06:04:23;5.10;;;1.90;;
75739;SDS011;64357;51.344;6.550;2023-02-28T06:06:53;6.72;;;1.25;;
75739;SDS011;64357;51.344;6.550;2023-02-28T06:09:22;3.75;;;1.02;;
75739;SDS011;64357;51.344;6.550;2023-02-28T06:11:48;7.30;;;2.72;;
75739;SDS011;64357;51.344;6.550;2023-02-28T06:14:17;9.25;;;1.30;;
75739;SDS011;64357;51.344;6.550;2023-02-28T06:16:48;8.77;;;1.70;;
75739;SDS011;64357;51.344;6.550;2023-02-28T06:19:14;3.53;;;1.00;;
75739;SDS011;64357;51.344;6.550;2023-02-28T06:21:42;4.13;;;1.23;;
75739;SDS011;64357;51.344;6.550;2023-02-28T06:24:08;6.93;;;1.65;;
75739;SDS011;64357;51.344;6.550;2023-02-28T06:26:34;6.80;;;1.33;;
75739;SDS011;64357;51.344;6.550;2023-02-28T06:29:02;3.92;;;1.38;;
75739;SDS011;64357;51.344;6.550;2023-02-28T06:31:28;3.78;;;1.23;;
75739;SDS011;64357;51.344;6.550;2023-02-28T06:33:54;8.88;;;2.67;;
75739;SDS011;64357;51.344;6.550;2023-02-28T06:36:22;6.32;;;1.75;;
75739;SDS011;64357;51.344;6.550;2023-02-28T06:38:47;3.28;;;1.13;;
75739;SDS011;64357;51.344;6.550;2023-02-28T06:43:44;7.23;;;1.43;;
75739;SDS011;64357;51.344;6.550;2023-02-28T06:46:11;5.30;;;1.80;;
75739;SDS011;64357;51.344;6.550;2023-02-28T06:48:38;5.65;;;1.83;;
75739;SDS011;64357;51.344;6.550;2023-02-28T06:51:08;4.78;;;1.73;;
75739;SDS011;64357;51.344;6.550;2023-02-28T06:53:36;7.90;;;1.80;;
75739;SDS011;64357;51.344;6.550;2023-02-28T06:56:09;4.95;;;1.98;;
75739;SDS011;64357;51.344;6.550;2023-02-28T06:58:40;5.60;;;1.80;;
75739;SDS011;64357;51.344;6.550;2023-02-28T07:01:08;3.83;;;1.20;;
75739;SDS011;64357;51.344;6.550;2023-02-28T07:03:36;3.85;;;1.55;;
75739;SDS011;64357;51.344;6.550;2023-02-28T07:06:02;4.57;;;1.98;;
75739;SDS011;64357;51.344;6.550;2023-02-28T07:08:29;5.15;;;1.90;;
75739;SDS011;64357;51.344;6.550;2023-02-28T07:10:54;4.28;;;1.50;;
75739;SDS011;64357;51.344;6.550;2023-02-28T07:13:20;5.15;;;1.88;;
75739;SDS011;64357;51.344;6.550;2023-02-28T07:15:59;5.68;;;1.52;;
75739;SDS011;64357;51.344;6.550;2023-02-28T07:18:28;5.47;;;1.48;;
75739;SDS011;64357;51.344;6.550;2023-02-28T07:20:53;5.38;;;1.58;;
75739;SDS011;64357;51.344;6.550;2023-02-28T07:23:19;4.10;;;1.80;;
75739;SDS011;64357;51.344;6.550;2023-02-28T07:25:49;4.03;;;1.15;;
75739;SDS011;64357;51.344;6.550;2023-02-28T07:28:15;4.28;;;1.10;;
75739;SDS011;64357;51.344;6.550;2023-02-28T07:30:42;3.45;;;1.30;;
75739;SDS011;64357;51.344;6.550;2023-02-28T07:33:08;3.58;;;1.35;;
75739;SDS011;64357;51.344;6.550;2023-02-28T07:35:35;5.18;;;1.67;;
75739;SDS011;64357;51.344;6.550;2023-02-28T07:38:00;6.50;;;2.25;;
75739;SDS011;64357;51.344;6.550;2023-02-28T07:40:28;5.93;;;1.73;;
75739;SDS011;64357;51.344;6.550;2023-02-28T07:42:54;6.30;;;1.80;;
75739;SDS011;64357;51.344;6.550;2023-02-28T07:45:19;3.80;;;1.40;;
75739;SDS011;64357;51.344;6.550;2023-02-28T07:47:49;4.10;;;1.48;;
75739;SDS011;64357;51.344;6.550;2023-02-28T07:50:14;6.03;;;1.93;;
75739;SDS011;64357;51.344;6.550;2023-02-28T07:52:41;10.80;;;1.60;;
75739;SDS011;64357;51.344;6.550;2023-02-28T07:55:07;5.38;;;1.52;;
75739;SDS011;64357;51.344;6.550;2023-02-28T07:57:34;4.72;;;1.90;;
75739;SDS011;64357;51.344;6.550;2023-02-28T07:59:59;5.03;;;1.60;;
75739;SDS011;64357;51.344;6.550;2023-02-28T08:02:28;3.17;;;1.10;;
75739;SDS011;64357;51.344;6.550;2023-02-28T08:04:53;6.20;;;1.70;;
75739;SDS011;64357;51.344;6.550;2023-02-28T08:07:18;4.77;;;1.80;;
75739;SDS011;64357;51.344;6.550;2023-02-28T08:09:44;4.57;;;1.43;;
75739;SDS011;64357;51.344;6.550;2023-02-28T08:12:12;4.13;;;1.33;;
75739;SDS011;64357;51.344;6.550;2023-02-28T08:14:37;2.97;;;1.17;;
75739;SDS011;64357;51.344;6.550;2023-02-28T08:17:03;9.43;;;0.73;;
75739;SDS011;64357;51.344;6.550;2023-02-28T08:19:29;8.23;;;1.52;;
75739;SDS011;64357;51.344;6.550;2023-02-28T08:21:55;3.13;;;1.67;;
75739;SDS011;64357;51.344;6.550;2023-02-28T08:24:21;2.03;;;0.82;;
75739;SDS011;64357;51.344;6.550;2023-02-28T08:26:46;2.78;;;0.95;;
75739;SDS011;64357;51.344;6.550;2023-02-28T08:29:16;4.38;;;1.30;;
75739;SDS011;64357;51.344;6.550;2023-02-28T08:31:44;1.85;;;0.80;;
75739;SDS011;64357;51.344;6.550;2023-02-28T08:34:10;4.73;;;1.13;;
75739;SDS011;64357;51.344;6.550;2023-02-28T08:36:42;2.60;;;1.08;;
75739;SDS011;64357;51.344;6.550;2023-02-28T08:39:09;2.13;;;0.90;;
75739;SDS011;64357;51.344;6.550;2023-02-28T08:41:35;3.92;;;1.42;;
75739;SDS011;64357;51.344;6.550;2023-02-28T08:44:01;3.63;;;1.42;;
75739;SDS011;64357;51.344;6.550;2023-02-28T08:46:26;2.87;;;0.90;;
75739;SDS011;64357;51.344;6.550;2023-02-28T08:48:52;5.13;;;1.27;;
75739;SDS011;64357;51.344;6.550;2023-02-28T08:51:25;3.88;;;1.70;;
75739;SDS011;64357;51.344;6.550;2023-02-28T08:53:57;3.72;;;1.40;;
75739;SDS011;64357;51.344;6.550;2023-02-28T08:56:27;2.00;;;0.77;;
75739;SDS011;64357;51.344;6.550;2023-02-28T08:58:54;2.03;;;0.80;;
75739;SDS011;64357;51.344;6.550;2023-02-28T09:01:24;1.80;;;0.77;;
75739;SDS011;64357;51.344;6.550;2023-02-28T09:06:24;4.50;;;2.00;;
75739;SDS011;64357;51.344;6.550;2023-02-28T09:08:51;3.55;;;0.93;;
75739;SDS011;64357;51.344;6.550;2023-02-28T09:11:17;4.85;;;1.05;;
75739;SDS011;64357;51.344;6.550;2023-02-28T09:13:44;1.65;;;0.65;;
75739;SDS011;64357;51.344;6.550;2023-02-28T09:16:11;3.92;;;1.38;;
75739;SDS011;64357;51.344;6.550;2023-02-28T09:18:38;2.20;;;1.00;;
75739;SDS011;64357;51.344;6.550;2023-02-28T09:21:05;2.85;;;1.17;;
75739;SDS011;64357;51.344;6.550;2023-02-28T09:23:35;3.10;;;0.95;;
75739;SDS011;64357;51.344;6.550;2023-02-28T09:26:03;2.50;;;1.05;;
75739;SDS011;64357;51.344;6.550;2023-02-28T09:28:31;1.10;;;0.50;;
75739;SDS011;64357;51.344;6.550;2023-02-28T09:31:00;1.00;;;0.50;;
75739;SDS011;64357;51.344;6.550;2023-02-28T09:33:25;2.22;;;0.85;;
75739;SDS011;64357;51.344;6.550;2023-02-28T09:35:57;1.10;;;0.50;;
75739;SDS011;64357;51.344;6.550;2023-02-28T09:38:25;0.98;;;0.45;;
75739;SDS011;64357;51.344;6.550;2023-02-28T09:40:52;2.73;;;0.70;;
75739;SDS011;64357;51.344;6.550;2023-02-28T09:43:24;2.00;;;1.05;;
75739;SDS011;64357;51.344;6.550;2023-02-28T09:45:55;1.45;;;0.65;;
75739;SDS011;64357;51.344;6.550;2023-02-28T09:48:29;0.55;;;0.30;;
75739;SDS011;64357;51.344;6.550;2023-02-28T09:51:05;2.65;;;0.85;;
75739;SDS011;64357;51.344;6.550;2023-02-28T09:53:40;1.73;;;0.65;;
75739;SDS011;64357;51.344;6.550;2023-02-28T09:56:10;1.23;;;0.55;;
75739;SDS011;64357;51.344;6.550;2023-02-28T10:01:15;2.63;;;0.80;;
75739;SDS011;64357;51.344;6.550;2023-02-28T10:04:03;5.45;;;1.42;;
75739;SDS011;64357;51.344;6.550;2023-02-28T10:06:33;2.03;;;1.00;;
75739;SDS011;64357;51.344;6.550;2023-02-28T10:09:17;2.28;;;1.02;;
75739;SDS011;64357;51.344;6.550;2023-02-28T10:11:43;2.28;;;0.77;;
75739;SDS011;64357;51.344;6.550;2023-02-28T10:16:52;1.58;;;0.63;;
75739;SDS011;64357;51.344;6.550;2023-02-28T10:22:13;2.65;;;1.00;;
75739;SDS011;64357;51.344;6.550;2023-02-28T10:24:50;2.78;;;0.98;;
75739;SDS011;64357;51.344;6.550;2023-02-28T10:27:18;0.68;;;0.40;;
75739;SDS011;64357;51.344;6.550;2023-02-28T10:29:45;5.38;;;1.05;;
75739;SDS011;64357;51.344;6.550;2023-02-28T10:32:18;1.40;;;0.50;;
75739;SDS011;64357;51.344;6.550;2023-02-28T10:35:10;2.13;;;0.70;;
75739;SDS011;64357;51.344;6.550;2023-02-28T10:37:41;0.52;;;0.40;;
75739;SDS011;64357;51.344;6.550;2023-02-28T10:40:25;4.13;;;0.73;;
75739;SDS011;64357;51.344;6.550;2023-02-28T10:45:28;0.70;;;0.43;;
75739;SDS011;64357;51.344;6.550;2023-02-28T10:48:10;2.10;;;0.77;;
75739;SDS011;64357;51.344;6.550;2023-02-28T10:58:31;2.60;;;0.75;;
75739;SDS011;64357;51.344;6.550;2023-02-28T11:04:00;1.85;;;0.55;;
75739;SDS011;64357;51.344;6.550;2023-02-28T11:06:32;2.17;;;0.77;;
75739;SDS011;64357;51.344;6.550;2023-02-28T11:11:26;3.97;;;1.15;;
75739;SDS011;64357;51.344;6.550;2023-02-28T11:13:58;2.70;;;1.30;;
75739;SDS011;64357;51.344;6.550;2023-02-28T11:16:34;2.67;;;0.77;;
75739;SDS011;64357;51.344;6.550;2023-02-28T11:19:04;2.10;;;0.70;;
75739;SDS011;64357;51.344;6.550;2023-02-28T11:21:45;2.42;;;0.90;;
75739;SDS011;64357;51.344;6.550;2023-02-28T11:24:29;1.15;;;0.60;;
75739;SDS011;64357;51.344;6.550;2023-02-28T11:26:58;0.82;;;0.45;;
75739;SDS011;64357;51.344;6.550;2023-02-28T11:34:58;1.77;;;0.80;;
75739;SDS011;64357;51.344;6.550;2023-02-28T11:37:38;2.05;;;0.93;;
75739;SDS011;64357;51.344;6.550;2023-02-28T11:40:12;1.80;;;0.90;;
75739;SDS011;64357;51.344;6.550;2023-02-28T11:42:50;1.70;;;0.80;;
75739;SDS011;64357;51.344;6.550;2023-02-28T12:27:11;3.25;;;1.33;;
75739;SDS011;64357;51.344;6.550;2023-02-28T12:34:49;2.05;;;1.00;;
75739;SDS011;64357;51.344;6.550;2023-02-28T12:37:24;2.53;;;0.98;;
75739;SDS011;64357;51.344;6.550;2023-02-28T12:39:56;2.38;;;0.85;;
75739;SDS011;64357;51.344;6.550;2023-02-28T12:42:31;4.47;;;1.65;;
75739;SDS011;64357;51.344;6.550;2023-02-28T12:45:05;1.05;;;0.65;;
75739;SDS011;64357;51.344;6.550;2023-02-28T12:47:38;4.18;;;1.10;;
75739;SDS011;64357;51.344;6.550;2023-02-28T12:50:06;3.90;;;1.30;;
75739;SDS011;64357;51.344;6.550;2023-02-28T12:52:56;2.85;;;1.13;;
75739;SDS011;64357;51.344;6.550;2023-02-28T13:00:38;2.88;;;1.00;;
75739;SDS011;64357;51.344;6.550;2023-02-28T13:08:48;4.40;;;0.98;;
75739;SDS011;64357;51.344;6.550;2023-02-28T13:11:28;1.38;;;0.70;;
75739;SDS011;64357;51.344;6.550;2023-02-28T13:14:04;2.13;;;0.93;;
75739;SDS011;64357;51.344;6.550;2023-02-28T13:17:00;1.52;;;0.75;;
75739;SDS011;64357;51.344;6.550;2023-02-28T13:19:34;5.40;;;1.60;;
75739;SDS011;64357;51.344;6.550;2023-02-28T13:22:02;3.88;;;1.30;;
75739;SDS011;64357;51.344;6.550;2023-02-28T13:24:39;5.93;;;1.27;;
75739;SDS011;64357;51.344;6.550;2023-02-28T13:34:40;2.22;;;0.85;;
75739;SDS011;64357;51.344;6.550;2023-02-28T13:37:32;1.48;;;0.93;;
75739;SDS011;64357;51.344;6.550;2023-02-28T13:42:55;2.53;;;0.93;;
75739;SDS011;64357;51.344;6.550;2023-02-28T13:45:22;4.57;;;1.40;;
75739;SDS011;64357;51.344;6.550;2023-02-28T13:47:53;2.78;;;1.30;;
75739;SDS011;64357;51.344;6.550;2023-02-28T13:55:31;3.20;;;1.42;;
75739;SDS011;64357;51.344;6.550;2023-02-28T14:09:16;2.33;;;1.17;;
75739;SDS011;64357;51.344;6.550;2023-02-28T14:11:45;1.58;;;0.90;;
75739;SDS011;64357;51.344;6.550;2023-02-28T14:17:04;3.65;;;1.30;;
75739;SDS011;64357;51.344;6.550;2023-02-28T14:19:32;1.20;;;0.70;;
75739;SDS011;64357;51.344;6.550;2023-02-28T14:33:04;2.55;;;0.93;;
75739;SDS011;64357;51.344;6.550;2023-02-28T14:39:18;2.92;;;0.98;;
75739;SDS011;64357;51.344;6.550;2023-02-28T14:41:47;2.92;;;1.08;;
75739;SDS011;64357;51.344;6.550;2023-02-28T14:44:22;3.53;;;1.13;;
75739;SDS011;64357;51.344;6.550;2023-02-28T14:46:52;2.03;;;0.95;;
75739;SDS011;64357;51.344;6.550;2023-02-28T14:54:39;2.28;;;1.10;;
75739;SDS011;64357;51.344;6.550;2023-02-28T14:57:28;1.20;;;0.85;;
75739;SDS011;64357;51.344;6.550;2023-02-28T14:59:57;2.47;;;1.48;;
75739;SDS011;64357;51.344;6.550;2023-02-28T15:02:41;4.43;;;1.60;;
75739;SDS011;64357;51.344;6.550;2023-02-28T15:07:34;2.73;;;1.33;;
75739;SDS011;64357;51.344;6.550;2023-02-28T15:10:33;4.25;;;1.45;;
75739;SDS011;64357;51.344;6.550;2023-02-28T15:15:21;2.90;;;1.50;;
75739;SDS011;64357;51.344;6.550;2023-02-28T15:17:50;3.97;;;1.30;;
75739;SDS011;64357;51.344;6.550;2023-02-28T15:20:18;3.65;;;1.40;;
75739;SDS011;64357;51.344;6.550;2023-02-28T15:22:47;3.00;;;1.48;;
75739;SDS011;64357;51.344;6.550;2023-02-28T15:25:20;1.52;;;1.02;;
75739;SDS011;64357;51.344;6.550;2023-02-28T15:27:50;2.28;;;1.10;;
75739;SDS011;64357;51.344;6.550;2023-02-28T15:30:26;2.25;;;1.02;;
75739;SDS011;64357;51.344;6.550;2023-02-28T15:35:42;3.58;;;1.17;;
75739;SDS011;64357;51.344;6.550;2023-02-28T15:40:46;2.80;;;1.15;;
75739;SDS011;64357;51.344;6.550;2023-02-28T15:43:34;5.30;;;1.55;;
75739;SDS011;64357;51.344;6.550;2023-02-28T15:46:07;2.88;;;1.25;;
75739;SDS011;64357;51.344;6.550;2023-02-28T15:48:37;3.17;;;0.95;;
75739;SDS011;64357;51.344;6.550;2023-02-28T15:51:35;4.22;;;1.38;;
75739;SDS011;64357;51.344;6.550;2023-02-28T15:54:07;2.88;;;1.45;;
75739;SDS011;64357;51.344;6.550;2023-02-28T15:56:35;2.83;;;1.20;;
75739;SDS011;64357;51.344;6.550;2023-02-28T15:59:12;2.67;;;1.05;;
75739;SDS011;64357;51.344;6.550;2023-02-28T16:01:45;5.43;;;1.70;;
75739;SDS011;64357;51.344;6.550;2023-02-28T16:04:18;4.15;;;1.50;;
75739;SDS011;64357;51.344;6.550;2023-02-28T16:09:22;4.63;;;1.60;;
75739;SDS011;64357;51.344;6.550;2023-02-28T16:11:48;2.85;;;1.33;;
75739;SDS011;64357;51.344;6.550;2023-02-28T16:14:17;3.88;;;1.40;;
75739;SDS011;64357;51.344;6.550;2023-02-28T16:16:46;7.47;;;2.15;;
75739;SDS011;64357;51.344;6.550;2023-02-28T16:19:13;5.63;;;1.60;;
75739;SDS011;64357;51.344;6.550;2023-02-28T16:21:38;3.33;;;1.33;;
75739;SDS011;64357;51.344;6.550;2023-02-28T16:24:08;4.90;;;1.40;;
75739;SDS011;64357;51.344;6.550;2023-02-28T16:26:33;2.20;;;1.17;;
75739;SDS011;64357;51.344;6.550;2023-02-28T16:29:02;3.67;;;1.48;;
75739;SDS011;64357;51.344;6.550;2023-02-28T16:31:28;4.10;;;1.55;;
75739;SDS011;64357;51.344;6.550;2023-02-28T16:33:54;4.13;;;1.50;;
75739;SDS011;64357;51.344;6.550;2023-02-28T16:36:23;4.05;;;1.80;;
75739;SDS011;64357;51.344;6.550;2023-02-28T16:38:53;3.03;;;1.38;;
75739;SDS011;64357;51.344;6.550;2023-02-28T16:41:20;5.03;;;2.00;;
75739;SDS011;64357;51.344;6.550;2023-02-28T16:43:54;5.82;;;1.92;;
75739;SDS011;64357;51.344;6.550;2023-02-28T16:46:31;5.43;;;1.95;;
75739;SDS011;64357;51.344;6.550;2023-02-28T16:48:59;3.88;;;1.58;;
75739;SDS011;64357;51.344;6.550;2023-02-28T16:51:24;3.10;;;1.02;;
75739;SDS011;64357;51.344;6.550;2023-02-28T16:53:52;4.03;;;1.33;;
75739;SDS011;64357;51.344;6.550;2023-02-28T16:56:19;3.13;;;1.60;;
75739;SDS011;64357;51.344;6.550;2023-02-28T16:58:50;4.80;;;1.88;;
75739;SDS011;64357;51.344;6.550;2023-02-28T17:01:20;2.05;;;1.10;;
75739;SDS011;64357;51.344;6.550;2023-02-28T17:03:46;4.50;;;1.55;;
75739;SDS011;64357;51.344;6.550;2023-02-28T17:06:16;4.00;;;1.23;;
75739;SDS011;64357;51.344;6.550;2023-02-28T17:08:49;4.50;;;1.70;;
75739;SDS011;64357;51.344;6.550;2023-02-28T17:11:15;3.47;;;1.45;;
75739;SDS011;64357;51.344;6.550;2023-02-28T17:13:41;2.75;;;1.30;;
75739;SDS011;64357;51.344;6.550;2023-02-28T17:16:26;2.63;;;1.05;;
75739;SDS011;64357;51.344;6.550;2023-02-28T17:18:58;2.83;;;1.25;;
75739;SDS011;64357;51.344;6.550;2023-02-28T17:21:28;3.70;;;1.05;;
75739;SDS011;64357;51.344;6.550;2023-02-28T17:23:54;3.70;;;1.58;;
75739;SDS011;64357;51.344;6.550;2023-02-28T17:26:22;2.47;;;1.25;;
75739;SDS011;64357;51.344;6.550;2023-02-28T17:28:52;4.60;;;1.70;;
75739;SDS011;64357;51.344;6.550;2023-02-28T17:31:22;3.63;;;1.52;;
75739;SDS011;64357;51.344;6.550;2023-02-28T17:33:48;6.75;;;2.00;;
75739;SDS011;64357;51.344;6.550;2023-02-28T17:36:16;3.65;;;1.88;;
75739;SDS011;64357;51.344;6.550;2023-02-28T17:38:49;2.97;;;1.35;;
75739;SDS011;64357;51.344;6.550;2023-02-28T17:41:14;3.75;;;1.52;;
75739;SDS011;64357;51.344;6.550;2023-02-28T17:43:40;6.57;;;2.17;;
75739;SDS011;64357;51.344;6.550;2023-02-28T17:46:25;5.35;;;1.88;;
75739;SDS011;64357;51.344;6.550;2023-02-28T17:48:53;4.43;;;1.77;;
75739;SDS011;64357;51.344;6.550;2023-02-28T17:51:19;4.93;;;2.00;;
75739;SDS011;64357;51.344;6.550;2023-02-28T17:53:49;4.35;;;1.58;;
75739;SDS011;64357;51.344;6.550;2023-02-28T17:56:15;8.23;;;2.20;;
75739;SDS011;64357;51.344;6.550;2023-02-28T17:58:43;5.82;;;2.15;;
75739;SDS011;64357;51.344;6.550;2023-02-28T18:01:11;7.10;;;2.00;;
75739;SDS011;64357;51.344;6.550;2023-02-28T18:03:39;5.32;;;1.85;;
75739;SDS011;64357;51.344;6.550;2023-02-28T18:06:05;5.22;;;1.60;;
75739;SDS011;64357;51.344;6.550;2023-02-28T18:08:31;7.82;;;2.08;;
75739;SDS011;64357;51.344;6.550;2023-02-28T18:10:59;2.92;;;1.25;;
75739;SDS011;64357;51.344;6.550;2023-02-28T18:13:25;8.90;;;1.75;;
75739;SDS011;64357;51.344;6.550;2023-02-28T18:15:52;6.28;;;2.58;;
75739;SDS011;64357;51.344;6.550;2023-02-28T18:18:20;5.13;;;2.00;;
75739;SDS011;64357;51.344;6.550;2023-02-28T18:20:48;7.38;;;2.10;;
75739;SDS011;64357;51.344;6.550;2023-02-28T18:23:14;6.15;;;2.40;;
75739;SDS011;64357;51.344;6.550;2023-02-28T18:25:42;5.38;;;2.20;;